Terminal Aerodrome Forecast
Issued by NWS Sterling, VA

Current Version | Previous Version | Graphics & Text | Print | Product List | Glossary On
Versions: 1 2 3 4 5 6 7 8 9 10 11 12 13 14 15 16 17 18 19 20 21 22 23 24
000
FTUS41 KLWX 181500 AAA
TAFIAD
TAF AMD
KIAD 181502Z 1815/1918 12004KT P6SM BKN050 BKN130
     FM182300 15004KT P6SM BKN050
     FM190300 VRB03KT P6SM BKN015 OVC050
     FM190600 VRB03KT 2SM BR OVC008
     FM191400 05005KT P6SM BKN015 OVC050=

USA.gov is the U.S. government's official web portal to all federal, state and local government web resources and services.